Oerle, Netherlands
Current Conditions -  °F | °C
As of 2:11 PM on Tuesday 21 Oct 2014 (Local Time) from EHEH Reporting Station
Light Rain Light Rain  
Wind Chill: 55°   Ceiling: 1300
Heat Index: 55°   Visibility: 6mi
Dew Point: 54°   Wind: 20mph
Humidity: 94%   Direction: 210°SSW
Pressure: 29.5"   Gusts: NA
Location:  51.42°N, 5.37°E
Report Text: EHEH 211211Z AUTO 21017KT 9999 -RA FEW007 SCT010 BKN013 13/12 Q0999 RERA REDZ GRN 21015G25KT 9999 -RADZ FEW010 BKN016 BKN020 TEMPO 21025G35KT 3000 SHRA FEW007 SCT009 BKN012CB BKN014
Loading
Personal Weather Stations






























Interactive Weather Map
Tropical Storm Tracking
New forecast layout! Learn more

10-Day Weather Forecast

Advertisements
Track Severe Weather on mobile